Cherry Valley, MA (01611)

5:21 PM EST on December 17, 2014 (GMT -0500)
Cherry Valley | Change Station
CLOSE
Current Station
Personal Weather Station
Location: Cherry Valley, MA
Elevation: 856 ft
Nearby Weather Stations

Elev 856 ft 42.24 °N, 71.87 °W | Updated 4 seconds ago

Overcast
Overcast
42.4 °F
Feels Like 40 °F
N
4.0
Wind Variable Wind from WNW
Gusts 16.0 mph

Today
High -- | Low -- °F
--% Chance of Precip.
Yesterday
High -- | Low -- °F
Precip. -- in
7:10 AM 4:16 PM
Waning Crescent, 19% visible
Pressure 29.72 in
Visibility 10.0 miles
Clouds Scattered Clouds 2200 ft
Overcast 8500 ft
Windchill 40 °F
Dew Point 38 °F
Humidity 86%
Rainfall 0.36 in
Snow Depth Not available.
UV 0 out of 12
Pollen .10 out of 12
Air Quality Not available.
Flu Activity Not available.
SPECI KORH 172208Z 28013KT 10SM SCT022 OVC085 05/03 A2972

More Conditions Fewer Conditions

Pressure 29.72 in
Visibility 10.0 miles
Clouds Scattered Clouds 2200 ft
Overcast 8500 ft
Windchill 40 °F
Dew Point 38 °F
Humidity 86%
Rainfall 0.36 in
Snow Depth Not available.
UV 0 out of 12
Pollen .10 out of 12
Air Quality Not available.
Flu Activity Not available.
SPECI KORH 172208Z 28013KT 10SM SCT022 OVC085 05/03 A2972

More Conditions Fewer Conditions

10-Day Weather Forecast

Almanac

Astronomy

Dec. 17, 2014 Rise Set
Actual Time
Civil Twilight
Nautical Twilight
Astronomical Twilight
Moon
Length of Visible Light
Length of Day
Tomorrow will be .
, % of the Moon is Illuminated

Today's Extremes

State Highs State Lows

Community

WunderPhotos

Upload Photos

1,778,811 photos uploaded!

WunderBlogs® & News

Nearby

Air Quality

  Air Quality AQ Index Pollutant
Not available.

Snow Depth

Station Depth Elevation

Earthquake Activity

City Distance Mag. Time & Date
Minimum magnitude displayed is 2.5.

Coastal Water Temperatures

Place Temperature

Nearby Weather Stations